Terminal Aerodrome Forecast
Issued by NWS

Home | Current Version | Previous Version | Text Only | Print | Product List | Glossary On
Versions: 1 2 3 4 5 6 7 8 9 10 11 12 13 14 15 16
000
FTUS45 KABQ 241152
TAFSAF
TAF
KSAF 241152Z 2412/2512 24011KT P6SM SCT006 OVC040
      TEMPO 2412/2415 2SM -SN OVC006
     FM241500 25011KT P6SM VCSH SCT010 OVC025
     FM241800 26017G25KT P6SM OVC040
     FM242100 27022G30KT P6SM VCSH SCT040 BKN090
     FM250100 28014KT P6SM BKN050
     FM250800 31011KT P6SM VCFG SCT010 BKN040=

USA.gov is the U.S. government's official web portal to all federal, state and local government web resources and services.